sensor_id;sensor_type;location;lat;lon;timestamp;P1;durP1;ratioP1;P2;durP2;ratioP2
69057;SDS011;56128;37.534;-122.308;2022-10-31T00:00:45;12.32;;;7.78;;
69057;SDS011;56128;37.534;-122.308;2022-10-31T00:03:12;12.30;;;8.55;;
69057;SDS011;56128;37.534;-122.308;2022-10-31T00:05:42;10.82;;;8.18;;
69057;SDS011;56128;37.534;-122.308;2022-10-31T00:08:10;12.48;;;8.50;;
69057;SDS011;56128;37.534;-122.308;2022-10-31T00:10:39;12.25;;;8.85;;
69057;SDS011;56128;37.534;-122.308;2022-10-31T00:13:06;12.23;;;8.68;;
69057;SDS011;56128;37.534;-122.308;2022-10-31T00:15:37;13.50;;;8.32;;
69057;SDS011;56128;37.534;-122.308;2022-10-31T00:18:04;10.60;;;7.38;;
69057;SDS011;56128;37.534;-122.308;2022-10-31T00:20:31;12.60;;;8.32;;
69057;SDS011;56128;37.534;-122.308;2022-10-31T00:22:58;12.18;;;8.70;;
69057;SDS011;56128;37.534;-122.308;2022-10-31T00:25:25;10.77;;;8.40;;
69057;SDS011;56128;37.534;-122.308;2022-10-31T00:27:52;11.48;;;8.25;;
69057;SDS011;56128;37.534;-122.308;2022-10-31T00:30:18;11.88;;;8.27;;
69057;SDS011;56128;37.534;-122.308;2022-10-31T00:32:45;13.13;;;8.20;;
69057;SDS011;56128;37.534;-122.308;2022-10-31T00:35:11;11.65;;;8.35;;
69057;SDS011;56128;37.534;-122.308;2022-10-31T00:37:37;9.88;;;8.10;;
69057;SDS011;56128;37.534;-122.308;2022-10-31T00:40:03;10.68;;;8.95;;
69057;SDS011;56128;37.534;-122.308;2022-10-31T00:42:30;11.38;;;8.73;;
69057;SDS011;56128;37.534;-122.308;2022-10-31T00:44:56;12.90;;;8.70;;
69057;SDS011;56128;37.534;-122.308;2022-10-31T00:47:22;10.93;;;8.55;;
69057;SDS011;56128;37.534;-122.308;2022-10-31T00:49:48;9.85;;;7.78;;
69057;SDS011;56128;37.534;-122.308;2022-10-31T00:52:14;11.23;;;7.80;;
69057;SDS011;56128;37.534;-122.308;2022-10-31T00:54:40;10.75;;;7.93;;
69057;SDS011;56128;37.534;-122.308;2022-10-31T00:57:06;10.80;;;7.72;;
69057;SDS011;56128;37.534;-122.308;2022-10-31T00:59:32;10.43;;;8.13;;
69057;SDS011;56128;37.534;-122.308;2022-10-31T01:01:58;12.02;;;8.27;;
69057;SDS011;56128;37.534;-122.308;2022-10-31T01:04:45;9.85;;;7.70;;
69057;SDS011;56128;37.534;-122.308;2022-10-31T01:07:11;9.82;;;7.63;;
69057;SDS011;56128;37.534;-122.308;2022-10-31T01:09:39;9.88;;;7.38;;
69057;SDS011;56128;37.534;-122.308;2022-10-31T01:12:05;9.90;;;7.53;;
69057;SDS011;56128;37.534;-122.308;2022-10-31T01:14:32;10.13;;;7.35;;
69057;SDS011;56128;37.534;-122.308;2022-10-31T01:16:58;10.52;;;7.60;;
69057;SDS011;56128;37.534;-122.308;2022-10-31T01:19:24;10.85;;;7.40;;
69057;SDS011;56128;37.534;-122.308;2022-10-31T01:21:50;14.98;;;7.57;;
69057;SDS011;56128;37.534;-122.308;2022-10-31T01:24:20;20.13;;;7.35;;
69057;SDS011;56128;37.534;-122.308;2022-10-31T01:26:46;12.30;;;7.38;;
69057;SDS011;56128;37.534;-122.308;2022-10-31T01:29:12;9.45;;;6.90;;
69057;SDS011;56128;37.534;-122.308;2022-10-31T01:31:39;9.55;;;6.72;;
69057;SDS011;56128;37.534;-122.308;2022-10-31T01:34:05;11.20;;;7.07;;
69057;SDS011;56128;37.534;-122.308;2022-10-31T01:36:33;8.88;;;6.88;;
69057;SDS011;56128;37.534;-122.308;2022-10-31T01:39:05;15.65;;;11.40;;
69057;SDS011;56128;37.534;-122.308;2022-10-31T01:41:37;21.58;;;16.15;;
69057;SDS011;56128;37.534;-122.308;2022-10-31T01:46:44;42.85;;;32.00;;
69057;SDS011;56128;37.534;-122.308;2022-10-31T01:49:17;22.30;;;19.15;;
69057;SDS011;56128;37.534;-122.308;2022-10-31T01:55:03;16.30;;;10.63;;
69057;SDS011;56128;37.534;-122.308;2022-10-31T01:57:35;10.30;;;7.28;;
69057;SDS011;56128;37.534;-122.308;2022-10-31T02:00:05;40.78;;;8.80;;
69057;SDS011;56128;37.534;-122.308;2022-10-31T02:02:34;20.80;;;8.27;;
69057;SDS011;56128;37.534;-122.308;2022-10-31T02:05:02;11.38;;;7.20;;
69057;SDS011;56128;37.534;-122.308;2022-10-31T02:07:33;11.70;;;7.53;;
69057;SDS011;56128;37.534;-122.308;2022-10-31T02:10:08;13.23;;;7.25;;
69057;SDS011;56128;37.534;-122.308;2022-10-31T02:12:35;12.57;;;7.97;;
69057;SDS011;56128;37.534;-122.308;2022-10-31T02:15:01;11.82;;;7.40;;
69057;SDS011;56128;37.534;-122.308;2022-10-31T02:17:29;13.65;;;7.32;;
69057;SDS011;56128;37.534;-122.308;2022-10-31T02:20:14;11.10;;;7.07;;
69057;SDS011;56128;37.534;-122.308;2022-10-31T02:37:11;10.07;;;7.57;;
69057;SDS011;56128;37.534;-122.308;2022-10-31T02:45:58;11.02;;;8.00;;
69057;SDS011;56128;37.534;-122.308;2022-10-31T02:48:36;13.43;;;8.30;;
69057;SDS011;56128;37.534;-122.308;2022-10-31T02:51:04;13.88;;;8.00;;
69057;SDS011;56128;37.534;-122.308;2022-10-31T02:53:33;12.65;;;8.07;;
69057;SDS011;56128;37.534;-122.308;2022-10-31T02:56:07;12.68;;;8.38;;
69057;SDS011;56128;37.534;-122.308;2022-10-31T02:58:36;13.70;;;8.85;;
69057;SDS011;56128;37.534;-122.308;2022-10-31T03:06:34;14.75;;;9.23;;
69057;SDS011;56128;37.534;-122.308;2022-10-31T03:09:23;12.68;;;8.82;;
69057;SDS011;56128;37.534;-122.308;2022-10-31T03:11:58;13.82;;;8.13;;
69057;SDS011;56128;37.534;-122.308;2022-10-31T03:19:42;13.38;;;9.20;;
69057;SDS011;56128;37.534;-122.308;2022-10-31T03:22:19;15.23;;;8.95;;
69057;SDS011;56128;37.534;-122.308;2022-10-31T03:24:49;16.65;;;9.50;;
69057;SDS011;56128;37.534;-122.308;2022-10-31T03:27:22;16.25;;;9.60;;
69057;SDS011;56128;37.534;-122.308;2022-10-31T03:29:51;15.68;;;9.55;;
69057;SDS011;56128;37.534;-122.308;2022-10-31T03:32:25;14.20;;;9.30;;
69057;SDS011;56128;37.534;-122.308;2022-10-31T03:34:57;16.63;;;9.48;;
69057;SDS011;56128;37.534;-122.308;2022-10-31T03:37:27;16.70;;;10.30;;
69057;SDS011;56128;37.534;-122.308;2022-10-31T03:39:58;14.98;;;9.63;;
69057;SDS011;56128;37.534;-122.308;2022-10-31T03:42:27;16.88;;;9.43;;
69057;SDS011;56128;37.534;-122.308;2022-10-31T03:45:08;14.77;;;9.00;;
69057;SDS011;56128;37.534;-122.308;2022-10-31T03:47:46;17.80;;;10.13;;
69057;SDS011;56128;37.534;-122.308;2022-10-31T03:50:14;17.70;;;8.88;;
69057;SDS011;56128;37.534;-122.308;2022-10-31T03:52:43;15.75;;;9.32;;
69057;SDS011;56128;37.534;-122.308;2022-10-31T03:55:51;17.85;;;9.52;;
69057;SDS011;56128;37.534;-122.308;2022-10-31T03:58:44;14.88;;;8.60;;
69057;SDS011;56128;37.534;-122.308;2022-10-31T04:01:19;19.45;;;9.65;;
69057;SDS011;56128;37.534;-122.308;2022-10-31T04:03:47;18.35;;;9.82;;
69057;SDS011;56128;37.534;-122.308;2022-10-31T04:06:14;14.40;;;8.82;;
69057;SDS011;56128;37.534;-122.308;2022-10-31T04:08:46;16.55;;;9.07;;
69057;SDS011;56128;37.534;-122.308;2022-10-31T04:11:17;16.95;;;9.18;;
69057;SDS011;56128;37.534;-122.308;2022-10-31T04:13:47;17.05;;;9.02;;
69057;SDS011;56128;37.534;-122.308;2022-10-31T04:16:14;15.57;;;8.75;;
69057;SDS011;56128;37.534;-122.308;2022-10-31T04:18:42;21.35;;;9.63;;
69057;SDS011;56128;37.534;-122.308;2022-10-31T04:21:08;18.38;;;9.05;;
69057;SDS011;56128;37.534;-122.308;2022-10-31T04:23:35;20.25;;;9.38;;
69057;SDS011;56128;37.534;-122.308;2022-10-31T04:26:02;15.57;;;8.75;;
69057;SDS011;56128;37.534;-122.308;2022-10-31T04:28:28;18.67;;;9.32;;
69057;SDS011;56128;37.534;-122.308;2022-10-31T04:30:54;17.75;;;8.93;;
69057;SDS011;56128;37.534;-122.308;2022-10-31T04:33:20;20.02;;;8.85;;
69057;SDS011;56128;37.534;-122.308;2022-10-31T04:35:47;18.13;;;8.90;;
69057;SDS011;56128;37.534;-122.308;2022-10-31T04:38:13;20.38;;;8.63;;
69057;SDS011;56128;37.534;-122.308;2022-10-31T04:40:39;19.95;;;8.40;;
69057;SDS011;56128;37.534;-122.308;2022-10-31T04:43:05;22.63;;;9.75;;
69057;SDS011;56128;37.534;-122.308;2022-10-31T04:45:31;27.38;;;9.05;;
69057;SDS011;56128;37.534;-122.308;2022-10-31T04:47:57;22.42;;;9.27;;
69057;SDS011;56128;37.534;-122.308;2022-10-31T04:50:23;20.38;;;9.38;;
69057;SDS011;56128;37.534;-122.308;2022-10-31T04:52:49;26.08;;;9.23;;
69057;SDS011;56128;37.534;-122.308;2022-10-31T04:55:15;19.33;;;8.40;;
69057;SDS011;56128;37.534;-122.308;2022-10-31T04:57:42;22.08;;;8.82;;
69057;SDS011;56128;37.534;-122.308;2022-10-31T05:00:10;24.35;;;8.60;;
69057;SDS011;56128;37.534;-122.308;2022-10-31T05:02:51;24.80;;;8.77;;
69057;SDS011;56128;37.534;-122.308;2022-10-31T05:05:20;26.83;;;7.85;;
69057;SDS011;56128;37.534;-122.308;2022-10-31T05:07:49;29.80;;;8.73;;
69057;SDS011;56128;37.534;-122.308;2022-10-31T05:10:17;23.90;;;8.52;;
69057;SDS011;56128;37.534;-122.308;2022-10-31T05:13:05;22.77;;;8.20;;
69057;SDS011;56128;37.534;-122.308;2022-10-31T05:15:31;27.13;;;7.75;;
69057;SDS011;56128;37.534;-122.308;2022-10-31T05:17:58;27.77;;;8.20;;
69057;SDS011;56128;37.534;-122.308;2022-10-31T05:20:25;32.08;;;8.77;;
69057;SDS011;56128;37.534;-122.308;2022-10-31T05:22:54;32.03;;;7.28;;
69057;SDS011;56128;37.534;-122.308;2022-10-31T05:25:22;34.85;;;7.78;;
69057;SDS011;56128;37.534;-122.308;2022-10-31T05:27:51;29.35;;;7.03;;
69057;SDS011;56128;37.534;-122.308;2022-10-31T05:30:19;25.85;;;7.82;;
69057;SDS011;56128;37.534;-122.308;2022-10-31T05:32:48;25.48;;;7.20;;
69057;SDS011;56128;37.534;-122.308;2022-10-31T05:35:16;25.50;;;7.88;;
69057;SDS011;56128;37.534;-122.308;2022-10-31T05:37:50;28.10;;;7.40;;
69057;SDS011;56128;37.534;-122.308;2022-10-31T05:40:17;25.65;;;7.55;;
69057;SDS011;56128;37.534;-122.308;2022-10-31T05:42:44;29.52;;;7.38;;
69057;SDS011;56128;37.534;-122.308;2022-10-31T05:45:13;33.80;;;7.90;;
69057;SDS011;56128;37.534;-122.308;2022-10-31T05:47:40;34.83;;;8.10;;
69057;SDS011;56128;37.534;-122.308;2022-10-31T05:50:08;29.98;;;7.82;;
69057;SDS011;56128;37.534;-122.308;2022-10-31T05:52:34;36.50;;;7.82;;
69057;SDS011;56128;37.534;-122.308;2022-10-31T05:55:01;29.90;;;8.07;;
69057;SDS011;56128;37.534;-122.308;2022-10-31T05:57:28;31.75;;;7.70;;
69057;SDS011;56128;37.534;-122.308;2022-10-31T05:59:54;34.28;;;7.88;;
69057;SDS011;56128;37.534;-122.308;2022-10-31T06:02:20;30.85;;;8.18;;
69057;SDS011;56128;37.534;-122.308;2022-10-31T06:04:47;36.63;;;8.18;;
69057;SDS011;56128;37.534;-122.308;2022-10-31T06:07:13;32.08;;;8.90;;
69057;SDS011;56128;37.534;-122.308;2022-10-31T06:09:39;31.63;;;7.72;;
69057;SDS011;56128;37.534;-122.308;2022-10-31T06:12:05;30.15;;;8.00;;
69057;SDS011;56128;37.534;-122.308;2022-10-31T06:14:31;36.22;;;8.02;;
69057;SDS011;56128;37.534;-122.308;2022-10-31T06:16:58;36.13;;;9.02;;
69057;SDS011;56128;37.534;-122.308;2022-10-31T06:19:24;40.53;;;8.98;;
69057;SDS011;56128;37.534;-122.308;2022-10-31T06:21:50;36.08;;;8.27;;
69057;SDS011;56128;37.534;-122.308;2022-10-31T06:24:16;41.08;;;8.20;;
69057;SDS011;56128;37.534;-122.308;2022-10-31T06:26:42;37.05;;;7.97;;
69057;SDS011;56128;37.534;-122.308;2022-10-31T06:29:08;32.22;;;7.80;;
69057;SDS011;56128;37.534;-122.308;2022-10-31T06:31:34;34.55;;;8.10;;
69057;SDS011;56128;37.534;-122.308;2022-10-31T06:34:00;34.65;;;7.85;;
69057;SDS011;56128;37.534;-122.308;2022-10-31T06:36:26;38.97;;;8.48;;
69057;SDS011;56128;37.534;-122.308;2022-10-31T06:38:52;26.75;;;7.22;;
69057;SDS011;56128;37.534;-122.308;2022-10-31T06:41:19;31.25;;;7.68;;
69057;SDS011;56128;37.534;-122.308;2022-10-31T06:43:48;30.55;;;7.72;;
69057;SDS011;56128;37.534;-122.308;2022-10-31T06:46:14;40.15;;;8.60;;
69057;SDS011;56128;37.534;-122.308;2022-10-31T06:48:41;39.95;;;8.27;;
69057;SDS011;56128;37.534;-122.308;2022-10-31T06:51:07;40.13;;;8.40;;
69057;SDS011;56128;37.534;-122.308;2022-10-31T06:53:33;35.92;;;8.32;;
69057;SDS011;56128;37.534;-122.308;2022-10-31T06:55:59;30.80;;;7.32;;
69057;SDS011;56128;37.534;-122.308;2022-10-31T06:58:25;34.85;;;8.30;;
69057;SDS011;56128;37.534;-122.308;2022-10-31T07:00:51;38.75;;;8.07;;
69057;SDS011;56128;37.534;-122.308;2022-10-31T07:03:18;35.35;;;7.95;;
69057;SDS011;56128;37.534;-122.308;2022-10-31T07:05:45;38.03;;;7.55;;
69057;SDS011;56128;37.534;-122.308;2022-10-31T07:08:12;39.45;;;9.02;;
69057;SDS011;56128;37.534;-122.308;2022-10-31T07:10:39;30.65;;;7.50;;
69057;SDS011;56128;37.534;-122.308;2022-10-31T07:13:10;36.85;;;8.20;;
69057;SDS011;56128;37.534;-122.308;2022-10-31T07:15:38;39.70;;;8.95;;
69057;SDS011;56128;37.534;-122.308;2022-10-31T07:18:07;42.35;;;8.32;;
69057;SDS011;56128;37.534;-122.308;2022-10-31T07:20:35;37.72;;;8.27;;
69057;SDS011;56128;37.534;-122.308;2022-10-31T07:23:01;36.45;;;8.15;;
69057;SDS011;56128;37.534;-122.308;2022-10-31T07:25:27;34.17;;;7.72;;
69057;SDS011;56128;37.534;-122.308;2022-10-31T07:27:54;37.60;;;7.65;;
69057;SDS011;56128;37.534;-122.308;2022-10-31T07:30:21;28.58;;;8.27;;
69057;SDS011;56128;37.534;-122.308;2022-10-31T07:32:48;29.13;;;8.50;;
69057;SDS011;56128;37.534;-122.308;2022-10-31T07:35:16;40.10;;;8.88;;
69057;SDS011;56128;37.534;-122.308;2022-10-31T07:37:44;38.10;;;8.73;;
69057;SDS011;56128;37.534;-122.308;2022-10-31T07:40:10;34.55;;;8.48;;
69057;SDS011;56128;37.534;-122.308;2022-10-31T07:42:40;33.45;;;8.77;;
69057;SDS011;56128;37.534;-122.308;2022-10-31T07:45:08;34.50;;;8.50;;
69057;SDS011;56128;37.534;-122.308;2022-10-31T07:47:39;40.33;;;8.98;;
69057;SDS011;56128;37.534;-122.308;2022-10-31T07:50:11;35.20;;;7.90;;
69057;SDS011;56128;37.534;-122.308;2022-10-31T07:52:42;36.85;;;8.25;;
69057;SDS011;56128;37.534;-122.308;2022-10-31T07:55:08;33.72;;;9.20;;
69057;SDS011;56128;37.534;-122.308;2022-10-31T07:57:35;37.40;;;8.60;;
69057;SDS011;56128;37.534;-122.308;2022-10-31T08:00:05;35.15;;;9.52;;
69057;SDS011;56128;37.534;-122.308;2022-10-31T08:02:32;35.63;;;8.77;;
69057;SDS011;56128;37.534;-122.308;2022-10-31T08:04:59;31.45;;;9.02;;
69057;SDS011;56128;37.534;-122.308;2022-10-31T08:07:27;31.90;;;8.15;;
69057;SDS011;56128;37.534;-122.308;2022-10-31T08:09:54;37.67;;;8.35;;
69057;SDS011;56128;37.534;-122.308;2022-10-31T08:12:21;32.47;;;7.35;;
69057;SDS011;56128;37.534;-122.308;2022-10-31T08:14:47;42.20;;;9.43;;
69057;SDS011;56128;37.534;-122.308;2022-10-31T08:17:13;43.03;;;8.73;;
69057;SDS011;56128;37.534;-122.308;2022-10-31T08:19:39;40.67;;;9.77;;
69057;SDS011;56128;37.534;-122.308;2022-10-31T08:22:05;37.67;;;8.43;;
69057;SDS011;56128;37.534;-122.308;2022-10-31T08:24:31;40.45;;;8.32;;
69057;SDS011;56128;37.534;-122.308;2022-10-31T08:26:58;38.05;;;8.80;;
69057;SDS011;56128;37.534;-122.308;2022-10-31T08:29:24;37.88;;;8.98;;
69057;SDS011;56128;37.534;-122.308;2022-10-31T08:31:50;37.95;;;8.85;;
69057;SDS011;56128;37.534;-122.308;2022-10-31T08:34:16;33.30;;;8.93;;
69057;SDS011;56128;37.534;-122.308;2022-10-31T08:36:42;33.05;;;8.27;;
69057;SDS011;56128;37.534;-122.308;2022-10-31T08:39:11;34.65;;;8.90;;
69057;SDS011;56128;37.534;-122.308;2022-10-31T08:41:37;44.85;;;9.13;;
69057;SDS011;56128;37.534;-122.308;2022-10-31T08:44:03;33.75;;;8.80;;
69057;SDS011;56128;37.534;-122.308;2022-10-31T08:46:29;40.17;;;8.80;;
69057;SDS011;56128;37.534;-122.308;2022-10-31T08:48:56;43.83;;;9.15;;
69057;SDS011;56128;37.534;-122.308;2022-10-31T08:51:23;41.65;;;9.30;;
69057;SDS011;56128;37.534;-122.308;2022-10-31T08:53:49;41.75;;;9.55;;
69057;SDS011;56128;37.534;-122.308;2022-10-31T08:56:15;41.20;;;9.82;;
69057;SDS011;56128;37.534;-122.308;2022-10-31T08:58:41;43.60;;;9.13;;
69057;SDS011;56128;37.534;-122.308;2022-10-31T09:01:07;38.40;;;9.25;;
69057;SDS011;56128;37.534;-122.308;2022-10-31T09:03:33;49.40;;;9.57;;
69057;SDS011;56128;37.534;-122.308;2022-10-31T09:06:00;38.22;;;9.43;;
69057;SDS011;56128;37.534;-122.308;2022-10-31T09:08:31;37.60;;;10.35;;
69057;SDS011;56128;37.534;-122.308;2022-10-31T09:10:58;48.05;;;9.57;;
69057;SDS011;56128;37.534;-122.308;2022-10-31T09:13:25;39.53;;;9.75;;
69057;SDS011;56128;37.534;-122.308;2022-10-31T09:15:51;43.47;;;9.90;;
69057;SDS011;56128;37.534;-122.308;2022-10-31T09:18:19;44.38;;;9.68;;
69057;SDS011;56128;37.534;-122.308;2022-10-31T09:20:48;36.15;;;9.48;;
69057;SDS011;56128;37.534;-122.308;2022-10-31T09:23:16;39.80;;;9.98;;
69057;SDS011;56128;37.534;-122.308;2022-10-31T09:25:44;40.90;;;9.68;;
69057;SDS011;56128;37.534;-122.308;2022-10-31T09:28:11;48.78;;;9.68;;
69057;SDS011;56128;37.534;-122.308;2022-10-31T09:30:39;39.30;;;9.65;;
69057;SDS011;56128;37.534;-122.308;2022-10-31T09:33:09;40.33;;;9.68;;
69057;SDS011;56128;37.534;-122.308;2022-10-31T09:35:37;42.78;;;9.52;;
69057;SDS011;56128;37.534;-122.308;2022-10-31T09:38:10;33.90;;;9.13;;
69057;SDS011;56128;37.534;-122.308;2022-10-31T09:40:38;45.38;;;9.82;;
69057;SDS011;56128;37.534;-122.308;2022-10-31T09:43:22;44.47;;;9.63;;
69057;SDS011;56128;37.534;-122.308;2022-10-31T09:46:00;40.10;;;8.90;;
69057;SDS011;56128;37.534;-122.308;2022-10-31T09:51:37;35.03;;;9.05;;
69057;SDS011;56128;37.534;-122.308;2022-10-31T09:54:21;36.03;;;9.38;;
69057;SDS011;56128;37.534;-122.308;2022-10-31T09:57:04;36.97;;;9.65;;
69057;SDS011;56128;37.534;-122.308;2022-10-31T09:59:37;40.13;;;9.90;;
69057;SDS011;56128;37.534;-122.308;2022-10-31T10:04:47;45.05;;;9.52;;
69057;SDS011;56128;37.534;-122.308;2022-10-31T10:07:16;42.10;;;10.57;;
69057;SDS011;56128;37.534;-122.308;2022-10-31T10:10:15;44.10;;;9.77;;
69057;SDS011;56128;37.534;-122.308;2022-10-31T10:15:52;35.00;;;9.90;;
69057;SDS011;56128;37.534;-122.308;2022-10-31T10:24:28;38.88;;;9.00;;
69057;SDS011;56128;37.534;-122.308;2022-10-31T10:27:05;34.35;;;10.05;;
69057;SDS011;56128;37.534;-122.308;2022-10-31T10:30:17;30.98;;;9.35;;
69057;SDS011;56128;37.534;-122.308;2022-10-31T10:32:52;41.58;;;9.57;;
69057;SDS011;56128;37.534;-122.308;2022-10-31T10:37:58;50.70;;;10.35;;
69057;SDS011;56128;37.534;-122.308;2022-10-31T10:40:28;40.05;;;11.00;;
69057;SDS011;56128;37.534;-122.308;2022-10-31T10:51:40;48.17;;;10.82;;
69057;SDS011;56128;37.534;-122.308;2022-10-31T10:57:10;49.20;;;11.88;;
69057;SDS011;56128;37.534;-122.308;2022-10-31T10:59:36;42.55;;;11.57;;
69057;SDS011;56128;37.534;-122.308;2022-10-31T11:02:03;47.83;;;11.88;;
69057;SDS011;56128;37.534;-122.308;2022-10-31T11:04:40;45.05;;;11.57;;
69057;SDS011;56128;37.534;-122.308;2022-10-31T11:07:11;42.13;;;11.95;;
69057;SDS011;56128;37.534;-122.308;2022-10-31T11:09:37;49.97;;;11.07;;
69057;SDS011;56128;37.534;-122.308;2022-10-31T11:12:08;55.03;;;11.13;;
69057;SDS011;56128;37.534;-122.308;2022-10-31T11:14:45;50.90;;;13.48;;
69057;SDS011;56128;37.534;-122.308;2022-10-31T11:17:30;49.72;;;11.55;;
69057;SDS011;56128;37.534;-122.308;2022-10-31T11:20:03;51.42;;;11.73;;
69057;SDS011;56128;37.534;-122.308;2022-10-31T11:22:39;50.40;;;12.25;;
69057;SDS011;56128;37.534;-122.308;2022-10-31T11:27:45;50.75;;;12.35;;
69057;SDS011;56128;37.534;-122.308;2022-10-31T11:30:12;49.42;;;12.77;;
69057;SDS011;56128;37.534;-122.308;2022-10-31T11:32:45;48.45;;;12.40;;
69057;SDS011;56128;37.534;-122.308;2022-10-31T11:35:18;59.47;;;12.93;;
69057;SDS011;56128;37.534;-122.308;2022-10-31T11:37:47;61.00;;;13.55;;
69057;SDS011;56128;37.534;-122.308;2022-10-31T11:40:17;46.70;;;12.82;;
69057;SDS011;56128;37.534;-122.308;2022-10-31T11:42:45;44.55;;;12.18;;
69057;SDS011;56128;37.534;-122.308;2022-10-31T11:45:17;57.65;;;13.25;;
69057;SDS011;56128;37.534;-122.308;2022-10-31T11:47:50;47.03;;;12.85;;
69057;SDS011;56128;37.534;-122.308;2022-10-31T11:50:21;58.50;;;12.60;;
69057;SDS011;56128;37.534;-122.308;2022-10-31T11:52:50;59.22;;;13.55;;
69057;SDS011;56128;37.534;-122.308;2022-10-31T11:55:32;58.33;;;12.82;;
69057;SDS011;56128;37.534;-122.308;2022-10-31T11:58:00;40.13;;;12.38;;
69057;SDS011;56128;37.534;-122.308;2022-10-31T12:00:30;49.92;;;11.98;;
69057;SDS011;56128;37.534;-122.308;2022-10-31T12:05:51;44.53;;;12.43;;
69057;SDS011;56128;37.534;-122.308;2022-10-31T12:08:34;50.00;;;12.73;;
69057;SDS011;56128;37.534;-122.308;2022-10-31T12:13:48;44.97;;;12.93;;
69057;SDS011;56128;37.534;-122.308;2022-10-31T12:19:17;48.88;;;12.70;;
69057;SDS011;56128;37.534;-122.308;2022-10-31T12:28:36;48.83;;;13.48;;
69057;SDS011;56128;37.534;-122.308;2022-10-31T12:33:23;56.45;;;13.18;;
69057;SDS011;56128;37.534;-122.308;2022-10-31T12:39:29;55.10;;;13.05;;
69057;SDS011;56128;37.534;-122.308;2022-10-31T12:58:31;44.25;;;11.60;;
69057;SDS011;56128;37.534;-122.308;2022-10-31T13:01:09;47.92;;;11.43;;
69057;SDS011;56128;37.534;-122.308;2022-10-31T13:06:30;41.92;;;11.43;;
69057;SDS011;56128;37.534;-122.308;2022-10-31T13:09:04;47.38;;;11.82;;
69057;SDS011;56128;37.534;-122.308;2022-10-31T13:14:22;40.33;;;12.43;;
69057;SDS011;56128;37.534;-122.308;2022-10-31T13:16:52;48.58;;;13.00;;
69057;SDS011;56128;37.534;-122.308;2022-10-31T13:19:54;50.17;;;11.98;;
69057;SDS011;56128;37.534;-122.308;2022-10-31T13:27:30;49.40;;;12.30;;
69057;SDS011;56128;37.534;-122.308;2022-10-31T13:30:18;44.88;;;12.80;;
69057;SDS011;56128;37.534;-122.308;2022-10-31T13:35:29;38.17;;;13.30;;
69057;SDS011;56128;37.534;-122.308;2022-10-31T13:38:15;48.08;;;13.13;;
69057;SDS011;56128;37.534;-122.308;2022-10-31T13:43:29;53.63;;;14.88;;
69057;SDS011;56128;37.534;-122.308;2022-10-31T13:46:24;53.83;;;14.00;;
69057;SDS011;56128;37.534;-122.308;2022-10-31T13:49:02;50.65;;;13.18;;
69057;SDS011;56128;37.534;-122.308;2022-10-31T13:51:32;43.42;;;12.82;;
69057;SDS011;56128;37.534;-122.308;2022-10-31T13:54:06;45.45;;;13.95;;
69057;SDS011;56128;37.534;-122.308;2022-10-31T13:56:49;39.80;;;12.90;;
69057;SDS011;56128;37.534;-122.308;2022-10-31T13:59:18;51.25;;;14.43;;
69057;SDS011;56128;37.534;-122.308;2022-10-31T14:01:49;44.13;;;14.48;;
69057;SDS011;56128;37.534;-122.308;2022-10-31T14:07:08;45.72;;;14.13;;
69057;SDS011;56128;37.534;-122.308;2022-10-31T14:09:49;43.83;;;14.25;;
69057;SDS011;56128;37.534;-122.308;2022-10-31T14:12:30;48.17;;;15.32;;
69057;SDS011;56128;37.534;-122.308;2022-10-31T14:14:59;39.97;;;14.60;;
69057;SDS011;56128;37.534;-122.308;2022-10-31T14:17:45;47.88;;;14.85;;
69057;SDS011;56128;37.534;-122.308;2022-10-31T14:20:44;50.30;;;14.57;;
69057;SDS011;56128;37.534;-122.308;2022-10-31T14:28:56;42.75;;;14.35;;
69057;SDS011;56128;37.534;-122.308;2022-10-31T14:45:39;54.65;;;18.08;;
69057;SDS011;56128;37.534;-122.308;2022-10-31T14:51:25;53.10;;;17.00;;
69057;SDS011;56128;37.534;-122.308;2022-10-31T14:54:04;51.55;;;17.38;;
69057;SDS011;56128;37.534;-122.308;2022-10-31T14:56:34;47.80;;;18.30;;
69057;SDS011;56128;37.534;-122.308;2022-10-31T14:59:04;54.45;;;17.67;;
69057;SDS011;56128;37.534;-122.308;2022-10-31T15:01:36;58.55;;;19.17;;
69057;SDS011;56128;37.534;-122.308;2022-10-31T15:04:10;55.40;;;18.00;;
69057;SDS011;56128;37.534;-122.308;2022-10-31T15:06:47;45.40;;;18.55;;
69057;SDS011;56128;37.534;-122.308;2022-10-31T15:09:35;51.75;;;18.83;;
69057;SDS011;56128;37.534;-122.308;2022-10-31T15:12:22;45.22;;;18.52;;
69057;SDS011;56128;37.534;-122.308;2022-10-31T15:14:53;49.22;;;19.40;;
69057;SDS011;56128;37.534;-122.308;2022-10-31T15:17:21;53.47;;;19.63;;
69057;SDS011;56128;37.534;-122.308;2022-10-31T15:19:48;58.22;;;20.73;;
69057;SDS011;56128;37.534;-122.308;2022-10-31T15:22:16;57.78;;;20.00;;
69057;SDS011;56128;37.534;-122.308;2022-10-31T15:24:48;54.73;;;21.10;;
69057;SDS011;56128;37.534;-122.308;2022-10-31T15:27:21;51.10;;;19.33;;
69057;SDS011;56128;37.534;-122.308;2022-10-31T15:29:50;55.55;;;20.67;;
69057;SDS011;56128;37.534;-122.308;2022-10-31T15:32:27;52.70;;;20.50;;
69057;SDS011;56128;37.534;-122.308;2022-10-31T15:34:55;55.80;;;20.17;;
69057;SDS011;56128;37.534;-122.308;2022-10-31T15:37:22;40.50;;;18.17;;
69057;SDS011;56128;37.534;-122.308;2022-10-31T15:39:50;49.88;;;18.55;;
69057;SDS011;56128;37.534;-122.308;2022-10-31T15:42:27;47.92;;;19.30;;
69057;SDS011;56128;37.534;-122.308;2022-10-31T15:45:05;52.05;;;19.40;;
69057;SDS011;56128;37.534;-122.308;2022-10-31T15:58:26;46.13;;;17.20;;
69057;SDS011;56128;37.534;-122.308;2022-10-31T16:00:57;41.13;;;16.95;;
69057;SDS011;56128;37.534;-122.308;2022-10-31T16:03:25;39.40;;;14.93;;
69057;SDS011;56128;37.534;-122.308;2022-10-31T16:05:59;43.85;;;15.40;;
69057;SDS011;56128;37.534;-122.308;2022-10-31T16:10:55;36.17;;;15.13;;
69057;SDS011;56128;37.534;-122.308;2022-10-31T16:16:17;34.28;;;13.48;;
69057;SDS011;56128;37.534;-122.308;2022-10-31T16:18:45;31.35;;;14.15;;
69057;SDS011;56128;37.534;-122.308;2022-10-31T16:21:13;33.38;;;13.38;;
69057;SDS011;56128;37.534;-122.308;2022-10-31T16:23:44;33.08;;;13.25;;
69057;SDS011;56128;37.534;-122.308;2022-10-31T16:26:14;36.40;;;12.70;;
69057;SDS011;56128;37.534;-122.308;2022-10-31T16:28:56;23.45;;;11.57;;
69057;SDS011;56128;37.534;-122.308;2022-10-31T16:31:28;23.65;;;11.15;;
69057;SDS011;56128;37.534;-122.308;2022-10-31T16:34:03;27.15;;;10.55;;
69057;SDS011;56128;37.534;-122.308;2022-10-31T16:36:36;25.48;;;11.20;;
69057;SDS011;56128;37.534;-122.308;2022-10-31T16:39:04;22.13;;;10.88;;
69057;SDS011;56128;37.534;-122.308;2022-10-31T16:41:31;23.30;;;10.55;;
69057;SDS011;56128;37.534;-122.308;2022-10-31T16:44:02;23.50;;;10.07;;
69057;SDS011;56128;37.534;-122.308;2022-10-31T16:46:31;24.77;;;10.80;;
69057;SDS011;56128;37.534;-122.308;2022-10-31T16:48:58;26.35;;;10.45;;
69057;SDS011;56128;37.534;-122.308;2022-10-31T16:51:24;27.08;;;10.00;;
69057;SDS011;56128;37.534;-122.308;2022-10-31T16:53:53;22.42;;;9.80;;
69057;SDS011;56128;37.534;-122.308;2022-10-31T16:56:27;21.15;;;9.90;;